sensor_id;sensor_type;location;lat;lon;timestamp;P1;durP1;ratioP1;P2;durP2;ratioP2
28756;SDS011;44294;48.282;14.282;2022-09-09T00:01:56;5.77;;;3.30;;
28756;SDS011;44294;48.282;14.282;2022-09-09T00:04:42;8.57;;;3.73;;
28756;SDS011;44294;48.282;14.282;2022-09-09T00:10:23;6.10;;;3.83;;
28756;SDS011;44294;48.282;14.282;2022-09-09T00:13:16;4.67;;;3.70;;
28756;SDS011;44294;48.282;14.282;2022-09-09T00:16:27;5.13;;;3.57;;
28756;SDS011;44294;48.282;14.282;2022-09-09T00:25:02;7.00;;;4.10;;
28756;SDS011;44294;48.282;14.282;2022-09-09T00:27:48;6.37;;;4.20;;
28756;SDS011;44294;48.282;14.282;2022-09-09T00:30:36;6.67;;;4.00;;
28756;SDS011;44294;48.282;14.282;2022-09-09T00:33:24;7.90;;;4.03;;
28756;SDS011;44294;48.282;14.282;2022-09-09T00:36:15;6.57;;;3.93;;
28756;SDS011;44294;48.282;14.282;2022-09-09T00:39:03;7.07;;;4.07;;
28756;SDS011;44294;48.282;14.282;2022-09-09T00:42:02;6.73;;;4.10;;
28756;SDS011;44294;48.282;14.282;2022-09-09T00:44:51;10.43;;;4.10;;
28756;SDS011;44294;48.282;14.282;2022-09-09T00:47:40;7.83;;;3.93;;
28756;SDS011;44294;48.282;14.282;2022-09-09T00:53:33;6.80;;;4.20;;
28756;SDS011;44294;48.282;14.282;2022-09-09T00:56:20;6.07;;;3.37;;
28756;SDS011;44294;48.282;14.282;2022-09-09T01:01:59;4.97;;;4.10;;
28756;SDS011;44294;48.282;14.282;2022-09-09T01:04:48;6.07;;;4.20;;
28756;SDS011;44294;48.282;14.282;2022-09-09T01:07:35;5.67;;;4.23;;
28756;SDS011;44294;48.282;14.282;2022-09-09T01:10:29;8.03;;;4.20;;
28756;SDS011;44294;48.282;14.282;2022-09-09T01:13:14;6.40;;;3.93;;
28756;SDS011;44294;48.282;14.282;2022-09-09T01:16:02;5.37;;;3.93;;
28756;SDS011;44294;48.282;14.282;2022-09-09T01:18:51;5.33;;;4.07;;
28756;SDS011;44294;48.282;14.282;2022-09-09T01:21:55;5.77;;;4.43;;
28756;SDS011;44294;48.282;14.282;2022-09-09T01:27:42;6.53;;;4.30;;
28756;SDS011;44294;48.282;14.282;2022-09-09T01:30:30;5.90;;;4.60;;
28756;SDS011;44294;48.282;14.282;2022-09-09T01:33:18;7.03;;;4.70;;
28756;SDS011;44294;48.282;14.282;2022-09-09T01:38:58;7.13;;;4.77;;
28756;SDS011;44294;48.282;14.282;2022-09-09T01:41:45;7.37;;;4.23;;
28756;SDS011;44294;48.282;14.282;2022-09-09T01:44:32;7.70;;;4.53;;
28756;SDS011;44294;48.282;14.282;2022-09-09T01:47:21;6.67;;;4.30;;
28756;SDS011;44294;48.282;14.282;2022-09-09T01:50:08;7.10;;;4.30;;
28756;SDS011;44294;48.282;14.282;2022-09-09T01:52:58;6.43;;;4.30;;
28756;SDS011;44294;48.282;14.282;2022-09-09T01:55:53;8.07;;;4.50;;
28756;SDS011;44294;48.282;14.282;2022-09-09T01:58:43;6.07;;;4.67;;
28756;SDS011;44294;48.282;14.282;2022-09-09T02:04:42;5.13;;;4.30;;
28756;SDS011;44294;48.282;14.282;2022-09-09T02:07:53;6.37;;;4.40;;
28756;SDS011;44294;48.282;14.282;2022-09-09T02:10:20;4.93;;;4.43;;
28756;SDS011;44294;48.282;14.282;2022-09-09T02:13:12;5.53;;;4.57;;
28756;SDS011;44294;48.282;14.282;2022-09-09T02:16:05;6.37;;;4.30;;
28756;SDS011;44294;48.282;14.282;2022-09-09T02:19:02;6.57;;;4.77;;
28756;SDS011;44294;48.282;14.282;2022-09-09T02:21:50;8.23;;;4.47;;
28756;SDS011;44294;48.282;14.282;2022-09-09T02:24:39;6.83;;;4.73;;
28756;SDS011;44294;48.282;14.282;2022-09-09T02:27:27;7.17;;;4.67;;
28756;SDS011;44294;48.282;14.282;2022-09-09T02:30:15;6.33;;;4.80;;
28756;SDS011;44294;48.282;14.282;2022-09-09T02:33:04;6.97;;;4.53;;
28756;SDS011;44294;48.282;14.282;2022-09-09T02:35:53;6.97;;;5.00;;
28756;SDS011;44294;48.282;14.282;2022-09-09T02:38:45;7.70;;;4.77;;
28756;SDS011;44294;48.282;14.282;2022-09-09T02:41:33;6.37;;;4.60;;
28756;SDS011;44294;48.282;14.282;2022-09-09T02:44:21;8.70;;;4.60;;
28756;SDS011;44294;48.282;14.282;2022-09-09T02:47:24;7.40;;;4.73;;
28756;SDS011;44294;48.282;14.282;2022-09-09T02:53:18;7.77;;;3.80;;
28756;SDS011;44294;48.282;14.282;2022-09-09T02:56:13;6.07;;;3.87;;
28756;SDS011;44294;48.282;14.282;2022-09-09T02:58:58;5.93;;;3.90;;
28756;SDS011;44294;48.282;14.282;2022-09-09T03:01:46;5.23;;;3.50;;
28756;SDS011;44294;48.282;14.282;2022-09-09T03:04:33;6.87;;;3.53;;
28756;SDS011;44294;48.282;14.282;2022-09-09T03:07:20;4.23;;;3.50;;
28756;SDS011;44294;48.282;14.282;2022-09-09T03:10:08;5.03;;;3.40;;
28756;SDS011;44294;48.282;14.282;2022-09-09T03:12:56;7.27;;;3.57;;
28756;SDS011;44294;48.282;14.282;2022-09-09T03:15:44;6.63;;;3.67;;
28756;SDS011;44294;48.282;14.282;2022-09-09T03:18:31;12.13;;;3.90;;
28756;SDS011;44294;48.282;14.282;2022-09-09T03:21:20;8.53;;;4.37;;
28756;SDS011;44294;48.282;14.282;2022-09-09T03:24:08;7.33;;;4.30;;
28756;SDS011;44294;48.282;14.282;2022-09-09T03:26:55;7.23;;;4.30;;
28756;SDS011;44294;48.282;14.282;2022-09-09T03:29:43;9.10;;;4.00;;
28756;SDS011;44294;48.282;14.282;2022-09-09T03:32:31;6.50;;;4.40;;
28756;SDS011;44294;48.282;14.282;2022-09-09T03:35:18;8.40;;;4.60;;
28756;SDS011;44294;48.282;14.282;2022-09-09T03:38:06;6.43;;;4.47;;
28756;SDS011;44294;48.282;14.282;2022-09-09T03:40:54;7.83;;;4.50;;
28756;SDS011;44294;48.282;14.282;2022-09-09T03:43:43;5.63;;;4.20;;
28756;SDS011;44294;48.282;14.282;2022-09-09T03:46:30;9.27;;;4.97;;
28756;SDS011;44294;48.282;14.282;2022-09-09T03:49:18;8.70;;;4.93;;
28756;SDS011;44294;48.282;14.282;2022-09-09T03:52:06;8.10;;;5.23;;
28756;SDS011;44294;48.282;14.282;2022-09-09T03:54:55;8.33;;;5.30;;
28756;SDS011;44294;48.282;14.282;2022-09-09T03:57:43;8.80;;;4.97;;
28756;SDS011;44294;48.282;14.282;2022-09-09T04:00:30;6.87;;;5.00;;
28756;SDS011;44294;48.282;14.282;2022-09-09T04:03:18;7.33;;;4.93;;
28756;SDS011;44294;48.282;14.282;2022-09-09T04:06:06;6.40;;;5.00;;
28756;SDS011;44294;48.282;14.282;2022-09-09T04:08:55;10.30;;;5.40;;
28756;SDS011;44294;48.282;14.282;2022-09-09T04:11:43;8.07;;;4.90;;
28756;SDS011;44294;48.282;14.282;2022-09-09T04:14:30;7.83;;;5.10;;
28756;SDS011;44294;48.282;14.282;2022-09-09T04:17:18;6.47;;;4.90;;
28756;SDS011;44294;48.282;14.282;2022-09-09T04:20:05;10.53;;;5.00;;
28756;SDS011;44294;48.282;14.282;2022-09-09T04:22:54;7.80;;;5.00;;
28756;SDS011;44294;48.282;14.282;2022-09-09T04:25:45;8.40;;;5.30;;
28756;SDS011;44294;48.282;14.282;2022-09-09T04:28:33;9.13;;;5.50;;
28756;SDS011;44294;48.282;14.282;2022-09-09T04:31:22;7.97;;;5.23;;
28756;SDS011;44294;48.282;14.282;2022-09-09T04:34:09;8.23;;;5.77;;
28756;SDS011;44294;48.282;14.282;2022-09-09T04:36:57;6.57;;;5.20;;
28756;SDS011;44294;48.282;14.282;2022-09-09T04:39:45;5.97;;;5.37;;
28756;SDS011;44294;48.282;14.282;2022-09-09T04:42:36;7.47;;;5.40;;
28756;SDS011;44294;48.282;14.282;2022-09-09T04:45:23;6.57;;;5.17;;
28756;SDS011;44294;48.282;14.282;2022-09-09T04:48:12;7.63;;;5.40;;
28756;SDS011;44294;48.282;14.282;2022-09-09T04:51:00;6.63;;;5.40;;
28756;SDS011;44294;48.282;14.282;2022-09-09T04:53:48;5.77;;;5.17;;
28756;SDS011;44294;48.282;14.282;2022-09-09T04:56:37;6.23;;;4.97;;
28756;SDS011;44294;48.282;14.282;2022-09-09T04:59:24;7.87;;;5.30;;
28756;SDS011;44294;48.282;14.282;2022-09-09T05:02:11;7.63;;;5.13;;
28756;SDS011;44294;48.282;14.282;2022-09-09T05:04:58;9.50;;;5.40;;
28756;SDS011;44294;48.282;14.282;2022-09-09T05:07:47;11.27;;;6.20;;
28756;SDS011;44294;48.282;14.282;2022-09-09T05:10:36;13.90;;;6.63;;
28756;SDS011;44294;48.282;14.282;2022-09-09T05:13:23;12.37;;;6.97;;
28756;SDS011;44294;48.282;14.282;2022-09-09T05:16:11;12.37;;;6.80;;
28756;SDS011;44294;48.282;14.282;2022-09-09T05:18:59;11.37;;;6.90;;
28756;SDS011;44294;48.282;14.282;2022-09-09T05:21:46;12.50;;;6.80;;
28756;SDS011;44294;48.282;14.282;2022-09-09T05:24:33;10.77;;;6.93;;
28756;SDS011;44294;48.282;14.282;2022-09-09T05:27:21;13.57;;;7.60;;
28756;SDS011;44294;48.282;14.282;2022-09-09T05:30:09;14.77;;;7.70;;
28756;SDS011;44294;48.282;14.282;2022-09-09T05:32:56;26.63;;;9.77;;
28756;SDS011;44294;48.282;14.282;2022-09-09T05:35:44;17.87;;;9.77;;
28756;SDS011;44294;48.282;14.282;2022-09-09T05:38:31;14.20;;;8.17;;
28756;SDS011;44294;48.282;14.282;2022-09-09T05:41:19;32.17;;;10.30;;
28756;SDS011;44294;48.282;14.282;2022-09-09T05:44:06;21.03;;;8.77;;
28756;SDS011;44294;48.282;14.282;2022-09-09T05:46:54;14.67;;;8.30;;
28756;SDS011;44294;48.282;14.282;2022-09-09T05:49:41;13.57;;;8.10;;
28756;SDS011;44294;48.282;14.282;2022-09-09T05:52:28;13.80;;;8.30;;
28756;SDS011;44294;48.282;14.282;2022-09-09T05:55:16;13.50;;;8.10;;
28756;SDS011;44294;48.282;14.282;2022-09-09T05:58:03;18.83;;;9.20;;
28756;SDS011;44294;48.282;14.282;2022-09-09T06:00:51;15.43;;;8.97;;
28756;SDS011;44294;48.282;14.282;2022-09-09T06:03:39;15.77;;;9.40;;
28756;SDS011;44294;48.282;14.282;2022-09-09T06:06:27;15.30;;;9.90;;
28756;SDS011;44294;48.282;14.282;2022-09-09T06:09:16;14.10;;;9.10;;
28756;SDS011;44294;48.282;14.282;2022-09-09T06:12:03;15.17;;;9.23;;
28756;SDS011;44294;48.282;14.282;2022-09-09T06:14:51;17.67;;;9.43;;
28756;SDS011;44294;48.282;14.282;2022-09-09T06:17:38;20.87;;;10.33;;
28756;SDS011;44294;48.282;14.282;2022-09-09T06:20:25;17.07;;;10.00;;
28756;SDS011;44294;48.282;14.282;2022-09-09T06:23:12;17.70;;;10.13;;
28756;SDS011;44294;48.282;14.282;2022-09-09T06:26:10;18.80;;;10.87;;
28756;SDS011;44294;48.282;14.282;2022-09-09T06:28:58;15.70;;;9.57;;
28756;SDS011;44294;48.282;14.282;2022-09-09T06:31:45;19.97;;;10.63;;
28756;SDS011;44294;48.282;14.282;2022-09-09T06:34:33;18.20;;;10.70;;
28756;SDS011;44294;48.282;14.282;2022-09-09T06:37:22;17.23;;;10.70;;
28756;SDS011;44294;48.282;14.282;2022-09-09T06:40:10;26.67;;;12.30;;
28756;SDS011;44294;48.282;14.282;2022-09-09T06:43:00;27.73;;;13.50;;
28756;SDS011;44294;48.282;14.282;2022-09-09T06:45:55;29.87;;;15.87;;
28756;SDS011;44294;48.282;14.282;2022-09-09T06:48:43;29.83;;;16.10;;
28756;SDS011;44294;48.282;14.282;2022-09-09T06:51:32;23.73;;;13.70;;
28756;SDS011;44294;48.282;14.282;2022-09-09T06:54:20;25.23;;;13.33;;
28756;SDS011;44294;48.282;14.282;2022-09-09T06:57:09;27.17;;;14.53;;
28756;SDS011;44294;48.282;14.282;2022-09-09T06:59:57;26.90;;;13.53;;
28756;SDS011;44294;48.282;14.282;2022-09-09T07:02:44;26.70;;;12.90;;
28756;SDS011;44294;48.282;14.282;2022-09-09T07:05:31;29.60;;;13.50;;
28756;SDS011;44294;48.282;14.282;2022-09-09T07:08:19;34.40;;;14.70;;
28756;SDS011;44294;48.282;14.282;2022-09-09T07:11:07;31.53;;;16.73;;
28756;SDS011;44294;48.282;14.282;2022-09-09T07:13:56;44.10;;;23.40;;
28756;SDS011;44294;48.282;14.282;2022-09-09T07:16:44;36.57;;;19.77;;
28756;SDS011;44294;48.282;14.282;2022-09-09T07:19:31;40.87;;;20.80;;
28756;SDS011;44294;48.282;14.282;2022-09-09T07:22:20;41.53;;;21.47;;
28756;SDS011;44294;48.282;14.282;2022-09-09T07:25:07;36.77;;;20.47;;
28756;SDS011;44294;48.282;14.282;2022-09-09T07:27:55;32.07;;;18.23;;
28756;SDS011;44294;48.282;14.282;2022-09-09T07:30:43;31.20;;;16.80;;
28756;SDS011;44294;48.282;14.282;2022-09-09T07:33:30;30.87;;;16.50;;
28756;SDS011;44294;48.282;14.282;2022-09-09T07:36:20;32.30;;;18.43;;
28756;SDS011;44294;48.282;14.282;2022-09-09T07:39:09;33.40;;;17.87;;
28756;SDS011;44294;48.282;14.282;2022-09-09T07:41:57;30.43;;;16.13;;
28756;SDS011;44294;48.282;14.282;2022-09-09T07:44:45;29.60;;;15.80;;
28756;SDS011;44294;48.282;14.282;2022-09-09T07:47:32;28.03;;;15.73;;
28756;SDS011;44294;48.282;14.282;2022-09-09T07:50:19;25.67;;;13.70;;
28756;SDS011;44294;48.282;14.282;2022-09-09T07:53:07;20.47;;;13.57;;
28756;SDS011;44294;48.282;14.282;2022-09-09T07:55:54;18.67;;;11.93;;
28756;SDS011;44294;48.282;14.282;2022-09-09T07:58:42;23.43;;;13.13;;
28756;SDS011;44294;48.282;14.282;2022-09-09T08:01:31;18.33;;;11.80;;
28756;SDS011;44294;48.282;14.282;2022-09-09T08:04:19;17.73;;;12.10;;
28756;SDS011;44294;48.282;14.282;2022-09-09T08:07:06;19.27;;;12.20;;
28756;SDS011;44294;48.282;14.282;2022-09-09T08:09:54;19.67;;;11.30;;
28756;SDS011;44294;48.282;14.282;2022-09-09T08:12:42;17.87;;;11.73;;
28756;SDS011;44294;48.282;14.282;2022-09-09T08:15:29;17.60;;;10.73;;
28756;SDS011;44294;48.282;14.282;2022-09-09T08:18:17;18.67;;;10.13;;
28756;SDS011;44294;48.282;14.282;2022-09-09T08:21:08;15.90;;;10.07;;
28756;SDS011;44294;48.282;14.282;2022-09-09T08:23:58;15.07;;;9.67;;
28756;SDS011;44294;48.282;14.282;2022-09-09T08:26:47;14.40;;;9.43;;
28756;SDS011;44294;48.282;14.282;2022-09-09T08:29:36;19.07;;;10.30;;
28756;SDS011;44294;48.282;14.282;2022-09-09T08:32:24;15.60;;;9.73;;
28756;SDS011;44294;48.282;14.282;2022-09-09T08:35:12;17.47;;;9.60;;
28756;SDS011;44294;48.282;14.282;2022-09-09T08:37:59;13.83;;;8.90;;
28756;SDS011;44294;48.282;14.282;2022-09-09T08:40:48;18.70;;;10.00;;
28756;SDS011;44294;48.282;14.282;2022-09-09T08:43:37;15.03;;;8.90;;
28756;SDS011;44294;48.282;14.282;2022-09-09T08:46:26;17.07;;;8.50;;
28756;SDS011;44294;48.282;14.282;2022-09-09T08:52:15;15.33;;;9.10;;
28756;SDS011;44294;48.282;14.282;2022-09-09T08:55:05;18.80;;;9.20;;
28756;SDS011;44294;48.282;14.282;2022-09-09T08:57:52;14.30;;;9.10;;
28756;SDS011;44294;48.282;14.282;2022-09-09T09:03:53;13.57;;;7.80;;
28756;SDS011;44294;48.282;14.282;2022-09-09T09:06:54;15.10;;;8.87;;
28756;SDS011;44294;48.282;14.282;2022-09-09T09:12:46;17.93;;;10.40;;
28756;SDS011;44294;48.282;14.282;2022-09-09T09:15:36;17.40;;;9.77;;
28756;SDS011;44294;48.282;14.282;2022-09-09T09:18:24;15.97;;;9.30;;
28756;SDS011;44294;48.282;14.282;2022-09-09T09:21:12;23.33;;;11.80;;
28756;SDS011;44294;48.282;14.282;2022-09-09T09:24:01;23.57;;;12.90;;
28756;SDS011;44294;48.282;14.282;2022-09-09T09:26:48;19.07;;;11.17;;
28756;SDS011;44294;48.282;14.282;2022-09-09T09:29:36;33.00;;;17.17;;
28756;SDS011;44294;48.282;14.282;2022-09-09T09:32:24;29.03;;;14.57;;
28756;SDS011;44294;48.282;14.282;2022-09-09T09:35:13;24.73;;;14.20;;
28756;SDS011;44294;48.282;14.282;2022-09-09T09:38:00;28.90;;;16.77;;
28756;SDS011;44294;48.282;14.282;2022-09-09T09:40:50;32.87;;;19.10;;
28756;SDS011;44294;48.282;14.282;2022-09-09T09:43:39;43.33;;;24.93;;
28756;SDS011;44294;48.282;14.282;2022-09-09T09:46:27;40.27;;;25.07;;
28756;SDS011;44294;48.282;14.282;2022-09-09T09:49:15;32.43;;;19.53;;
28756;SDS011;44294;48.282;14.282;2022-09-09T09:52:04;27.90;;;16.80;;
28756;SDS011;44294;48.282;14.282;2022-09-09T09:54:52;20.83;;;13.17;;
28756;SDS011;44294;48.282;14.282;2022-09-09T09:57:40;18.53;;;10.93;;
28756;SDS011;44294;48.282;14.282;2022-09-09T10:00:27;14.47;;;9.83;;
28756;SDS011;44294;48.282;14.282;2022-09-09T10:03:25;14.47;;;10.00;;
28756;SDS011;44294;48.282;14.282;2022-09-09T10:06:13;15.50;;;10.10;;
28756;SDS011;44294;48.282;14.282;2022-09-09T10:09:01;14.87;;;9.40;;
28756;SDS011;44294;48.282;14.282;2022-09-09T10:15:01;13.17;;;9.00;;
28756;SDS011;44294;48.282;14.282;2022-09-09T10:23:45;11.13;;;8.47;;
28756;SDS011;44294;48.282;14.282;2022-09-09T10:32:26;15.30;;;9.67;;
28756;SDS011;44294;48.282;14.282;2022-09-09T10:35:26;15.47;;;9.50;;
28756;SDS011;44294;48.282;14.282;2022-09-09T10:44:15;17.57;;;11.00;;
28756;SDS011;44294;48.282;14.282;2022-09-09T10:50:08;17.30;;;10.53;;
28756;SDS011;44294;48.282;14.282;2022-09-09T10:56:01;29.17;;;14.87;;
28756;SDS011;44294;48.282;14.282;2022-09-09T10:58:49;30.60;;;18.80;;
28756;SDS011;44294;48.282;14.282;2022-09-09T11:01:43;35.47;;;19.23;;
28756;SDS011;44294;48.282;14.282;2022-09-09T11:04:42;30.40;;;19.00;;
28756;SDS011;44294;48.282;14.282;2022-09-09T11:07:33;27.03;;;16.83;;
28756;SDS011;44294;48.282;14.282;2022-09-09T11:13:19;21.37;;;12.83;;
28756;SDS011;44294;48.282;14.282;2022-09-09T11:16:04;21.13;;;13.60;;
28756;SDS011;44294;48.282;14.282;2022-09-09T11:18:51;19.03;;;12.67;;
28756;SDS011;44294;48.282;14.282;2022-09-09T11:21:45;20.17;;;13.13;;
28756;SDS011;44294;48.282;14.282;2022-09-09T11:24:36;18.07;;;13.53;;
28756;SDS011;44294;48.282;14.282;2022-09-09T11:27:25;19.37;;;14.03;;
28756;SDS011;44294;48.282;14.282;2022-09-09T11:30:15;17.83;;;11.97;;
28756;SDS011;44294;48.282;14.282;2022-09-09T11:36:06;20.33;;;12.93;;
28756;SDS011;44294;48.282;14.282;2022-09-09T11:38:52;16.47;;;11.53;;
28756;SDS011;44294;48.282;14.282;2022-09-09T11:41:40;14.87;;;11.70;;
28756;SDS011;44294;48.282;14.282;2022-09-09T11:44:29;17.03;;;12.33;;
28756;SDS011;44294;48.282;14.282;2022-09-09T11:47:29;15.13;;;10.73;;
28756;SDS011;44294;48.282;14.282;2022-09-09T11:56:09;15.97;;;11.03;;
28756;SDS011;44294;48.282;14.282;2022-09-09T11:59:03;13.13;;;10.40;;
28756;SDS011;44294;48.282;14.282;2022-09-09T12:02:00;15.73;;;11.87;;
28756;SDS011;44294;48.282;14.282;2022-09-09T12:04:59;18.93;;;11.40;;
28756;SDS011;44294;48.282;14.282;2022-09-09T12:07:55;12.43;;;10.40;;
28756;SDS011;44294;48.282;14.282;2022-09-09T12:10:52;12.57;;;9.57;;
28756;SDS011;44294;48.282;14.282;2022-09-09T12:13:30;14.53;;;9.70;;
28756;SDS011;44294;48.282;14.282;2022-09-09T12:16:35;11.80;;;9.27;;
28756;SDS011;44294;48.282;14.282;2022-09-09T12:19:21;12.07;;;9.43;;
28756;SDS011;44294;48.282;14.282;2022-09-09T12:25:19;11.57;;;9.43;;
28756;SDS011;44294;48.282;14.282;2022-09-09T12:28:14;15.37;;;8.53;;
28756;SDS011;44294;48.282;14.282;2022-09-09T12:31:05;13.43;;;8.17;;
28756;SDS011;44294;48.282;14.282;2022-09-09T12:33:51;11.53;;;7.90;;
28756;SDS011;44294;48.282;14.282;2022-09-09T12:36:39;11.70;;;9.00;;
28756;SDS011;44294;48.282;14.282;2022-09-09T12:39:34;10.80;;;7.57;;
28756;SDS011;44294;48.282;14.282;2022-09-09T12:42:22;9.43;;;7.50;;
28756;SDS011;44294;48.282;14.282;2022-09-09T12:45:20;8.87;;;6.87;;
28756;SDS011;44294;48.282;14.282;2022-09-09T12:48:10;8.30;;;6.77;;
28756;SDS011;44294;48.282;14.282;2022-09-09T12:51:00;8.03;;;6.50;;
28756;SDS011;44294;48.282;14.282;2022-09-09T12:53:48;12.10;;;6.83;;
28756;SDS011;44294;48.282;14.282;2022-09-09T12:56:36;8.07;;;6.00;;
28756;SDS011;44294;48.282;14.282;2022-09-09T12:59:24;6.37;;;5.27;;
28756;SDS011;44294;48.282;14.282;2022-09-09T13:02:24;7.40;;;5.80;;
28756;SDS011;44294;48.282;14.282;2022-09-09T13:05:14;8.13;;;5.40;;
28756;SDS011;44294;48.282;14.282;2022-09-09T13:08:03;9.13;;;5.20;;
28756;SDS011;44294;48.282;14.282;2022-09-09T13:10:53;6.07;;;4.90;;
28756;SDS011;44294;48.282;14.282;2022-09-09T13:13:43;7.50;;;5.57;;
28756;SDS011;44294;48.282;14.282;2022-09-09T13:16:32;6.40;;;5.50;;
28756;SDS011;44294;48.282;14.282;2022-09-09T13:19:21;6.83;;;5.20;;
28756;SDS011;44294;48.282;14.282;2022-09-09T13:22:18;7.53;;;5.67;;
28756;SDS011;44294;48.282;14.282;2022-09-09T13:25:04;6.53;;;5.03;;
28756;SDS011;44294;48.282;14.282;2022-09-09T13:28:01;8.47;;;5.47;;
28756;SDS011;44294;48.282;14.282;2022-09-09T13:30:55;8.53;;;5.67;;
28756;SDS011;44294;48.282;14.282;2022-09-09T13:33:45;7.37;;;5.30;;
28756;SDS011;44294;48.282;14.282;2022-09-09T13:36:33;7.30;;;4.83;;
28756;SDS011;44294;48.282;14.282;2022-09-09T13:39:21;10.13;;;6.30;;
28756;SDS011;44294;48.282;14.282;2022-09-09T13:42:21;9.77;;;6.80;;
28756;SDS011;44294;48.282;14.282;2022-09-09T13:45:01;5.60;;;5.00;;
28756;SDS011;44294;48.282;14.282;2022-09-09T13:47:50;7.97;;;5.43;;
28756;SDS011;44294;48.282;14.282;2022-09-09T13:50:39;7.83;;;5.47;;
28756;SDS011;44294;48.282;14.282;2022-09-09T13:53:27;8.47;;;5.53;;
28756;SDS011;44294;48.282;14.282;2022-09-09T13:56:15;8.10;;;5.50;;
28756;SDS011;44294;48.282;14.282;2022-09-09T13:59:04;10.00;;;6.30;;
28756;SDS011;44294;48.282;14.282;2022-09-09T14:01:51;11.23;;;7.57;;
28756;SDS011;44294;48.282;14.282;2022-09-09T14:04:39;11.17;;;7.60;;
28756;SDS011;44294;48.282;14.282;2022-09-09T14:07:28;9.30;;;7.80;;
28756;SDS011;44294;48.282;14.282;2022-09-09T14:10:16;9.53;;;7.10;;
28756;SDS011;44294;48.282;14.282;2022-09-09T14:13:03;11.67;;;7.57;;
28756;SDS011;44294;48.282;14.282;2022-09-09T14:15:50;8.63;;;7.00;;
28756;SDS011;44294;48.282;14.282;2022-09-09T14:18:38;10.30;;;8.33;;
28756;SDS011;44294;48.282;14.282;2022-09-09T14:21:27;14.20;;;8.40;;
28756;SDS011;44294;48.282;14.282;2022-09-09T14:24:14;10.47;;;8.20;;
28756;SDS011;44294;48.282;14.282;2022-09-09T14:27:02;10.80;;;7.83;;
28756;SDS011;44294;48.282;14.282;2022-09-09T14:29:50;11.13;;;8.50;;
28756;SDS011;44294;48.282;14.282;2022-09-09T14:32:37;10.53;;;8.60;;
28756;SDS011;44294;48.282;14.282;2022-09-09T14:35:24;11.17;;;9.20;;
28756;SDS011;44294;48.282;14.282;2022-09-09T14:38:12;10.87;;;8.57;;
28756;SDS011;44294;48.282;14.282;2022-09-09T14:41:00;11.00;;;8.67;;
28756;SDS011;44294;48.282;14.282;2022-09-09T14:43:51;12.43;;;9.20;;
28756;SDS011;44294;48.282;14.282;2022-09-09T14:46:38;12.47;;;8.90;;
28756;SDS011;44294;48.282;14.282;2022-09-09T14:49:25;10.70;;;9.17;;
28756;SDS011;44294;48.282;14.282;2022-09-09T14:52:13;10.70;;;8.87;;
28756;SDS011;44294;48.282;14.282;2022-09-09T14:55:00;10.37;;;8.57;;
28756;SDS011;44294;48.282;14.282;2022-09-09T14:57:47;11.17;;;8.90;;
28756;SDS011;44294;48.282;14.282;2022-09-09T15:00:35;12.17;;;8.80;;
28756;SDS011;44294;48.282;14.282;2022-09-09T15:03:23;12.53;;;8.63;;
28756;SDS011;44294;48.282;14.282;2022-09-09T15:06:11;15.67;;;10.43;;
28756;SDS011;44294;48.282;14.282;2022-09-09T15:08:59;14.23;;;10.20;;
28756;SDS011;44294;48.282;14.282;2022-09-09T15:11:46;13.57;;;10.23;;
28756;SDS011;44294;48.282;14.282;2022-09-09T15:14:34;12.13;;;9.53;;
28756;SDS011;44294;48.282;14.282;2022-09-09T15:17:21;11.80;;;8.77;;
28756;SDS011;44294;48.282;14.282;2022-09-09T15:20:10;13.40;;;7.90;;
28756;SDS011;44294;48.282;14.282;2022-09-09T15:22:57;10.43;;;7.73;;
28756;SDS011;44294;48.282;14.282;2022-09-09T15:25:51;7.53;;;6.40;;
28756;SDS011;44294;48.282;14.282;2022-09-09T15:28:39;8.23;;;5.93;;
28756;SDS011;44294;48.282;14.282;2022-09-09T15:31:28;9.07;;;6.20;;
28756;SDS011;44294;48.282;14.282;2022-09-09T15:34:16;7.40;;;5.40;;
28756;SDS011;44294;48.282;14.282;2022-09-09T15:37:03;6.47;;;5.20;;
28756;SDS011;44294;48.282;14.282;2022-09-09T15:39:52;9.07;;;6.00;;
28756;SDS011;44294;48.282;14.282;2022-09-09T15:42:39;9.73;;;6.73;;
28756;SDS011;44294;48.282;14.282;2022-09-09T15:45:27;9.77;;;7.57;;
28756;SDS011;44294;48.282;14.282;2022-09-09T15:48:14;10.37;;;7.00;;
28756;SDS011;44294;48.282;14.282;2022-09-09T15:51:02;9.03;;;6.17;;
28756;SDS011;44294;48.282;14.282;2022-09-09T15:53:53;8.30;;;6.00;;
28756;SDS011;44294;48.282;14.282;2022-09-09T15:56:42;15.07;;;7.40;;
28756;SDS011;44294;48.282;14.282;2022-09-09T15:59:30;11.47;;;7.03;;
28756;SDS011;44294;48.282;14.282;2022-09-09T16:02:18;8.87;;;6.30;;
28756;SDS011;44294;48.282;14.282;2022-09-09T16:05:05;10.30;;;6.90;;
28756;SDS011;44294;48.282;14.282;2022-09-09T16:07:53;8.90;;;6.40;;
28756;SDS011;44294;48.282;14.282;2022-09-09T16:10:40;7.97;;;6.03;;
28756;SDS011;44294;48.282;14.282;2022-09-09T16:13:28;9.93;;;5.90;;
28756;SDS011;44294;48.282;14.282;2022-09-09T16:16:16;8.63;;;5.57;;
28756;SDS011;44294;48.282;14.282;2022-09-09T16:19:10;8.37;;;5.20;;
28756;SDS011;44294;48.282;14.282;2022-09-09T16:21:53;8.20;;;5.20;;
28756;SDS011;44294;48.282;14.282;2022-09-09T16:24:40;9.37;;;5.80;;
28756;SDS011;44294;48.282;14.282;2022-09-09T16:27:28;7.47;;;5.40;;
28756;SDS011;44294;48.282;14.282;2022-09-09T16:30:15;11.83;;;6.70;;
28756;SDS011;44294;48.282;14.282;2022-09-09T16:33:02;9.23;;;6.10;;
28756;SDS011;44294;48.282;14.282;2022-09-09T16:35:50;8.83;;;6.63;;
28756;SDS011;44294;48.282;14.282;2022-09-09T16:38:37;11.53;;;6.60;;
28756;SDS011;44294;48.282;14.282;2022-09-09T16:41:25;8.27;;;6.00;;
28756;SDS011;44294;48.282;14.282;2022-09-09T16:44:14;8.40;;;6.20;;
28756;SDS011;44294;48.282;14.282;2022-09-09T16:47:03;13.23;;;6.47;;
28756;SDS011;44294;48.282;14.282;2022-09-09T16:49:50;8.47;;;6.17;;
28756;SDS011;44294;48.282;14.282;2022-09-09T16:52:38;10.70;;;5.90;;
28756;SDS011;44294;48.282;14.282;2022-09-09T16:55:25;8.27;;;5.80;;
28756;SDS011;44294;48.282;14.282;2022-09-09T16:58:13;7.83;;;6.10;;
28756;SDS011;44294;48.282;14.282;2022-09-09T17:01:00;11.30;;;6.33;;
28756;SDS011;44294;48.282;14.282;2022-09-09T17:03:53;9.13;;;6.20;;
28756;SDS011;44294;48.282;14.282;2022-09-09T17:06:41;10.87;;;5.90;;
28756;SDS011;44294;48.282;14.282;2022-09-09T17:09:29;8.50;;;6.40;;
28756;SDS011;44294;48.282;14.282;2022-09-09T17:12:17;9.40;;;6.67;;
28756;SDS011;44294;48.282;14.282;2022-09-09T17:15:05;9.70;;;6.63;;
28756;SDS011;44294;48.282;14.282;2022-09-09T17:17:52;8.67;;;6.53;;
28756;SDS011;44294;48.282;14.282;2022-09-09T17:20:41;11.50;;;6.80;;
28756;SDS011;44294;48.282;14.282;2022-09-09T17:23:28;10.17;;;6.50;;
28756;SDS011;44294;48.282;14.282;2022-09-09T17:26:17;8.87;;;6.10;;
28756;SDS011;44294;48.282;14.282;2022-09-09T17:29:04;10.47;;;6.60;;
28756;SDS011;44294;48.282;14.282;2022-09-09T17:31:52;9.47;;;5.97;;
28756;SDS011;44294;48.282;14.282;2022-09-09T17:34:41;7.50;;;5.90;;
28756;SDS011;44294;48.282;14.282;2022-09-09T17:37:29;12.53;;;6.60;;
28756;SDS011;44294;48.282;14.282;2022-09-09T17:40:16;7.60;;;6.10;;
28756;SDS011;44294;48.282;14.282;2022-09-09T17:43:03;9.83;;;6.53;;
28756;SDS011;44294;48.282;14.282;2022-09-09T17:45:51;9.60;;;6.03;;
28756;SDS011;44294;48.282;14.282;2022-09-09T17:48:38;8.00;;;5.70;;